createdAt,value
2018-02-24T00:01:11.153Z,89.00
2018-02-24T00:03:37.613Z,89.00
2018-02-24T00:06:04.007Z,89.10
2018-02-24T00:08:30.423Z,89.10
2018-02-24T00:10:56.897Z,89.00
2018-02-24T00:13:23.410Z,89.00
2018-02-24T00:15:49.860Z,89.00
2018-02-24T00:18:16.321Z,88.90
2018-02-24T00:20:42.808Z,89.00
2018-02-24T00:23:09.259Z,88.80
2018-02-24T00:25:35.985Z,88.80
2018-02-24T00:28:03.180Z,88.80
2018-02-24T00:30:29.665Z,88.80
2018-02-24T00:32:56.135Z,88.80
2018-02-24T00:35:22.501Z,88.70
2018-02-24T00:37:49.621Z,89.00
2018-02-24T00:40:16.110Z,88.70
2018-02-24T00:42:42.517Z,89.50
2018-02-24T00:45:09.717Z,89.30
2018-02-24T00:47:36.412Z,89.20
2018-02-24T00:50:03.573Z,88.80
2018-02-24T00:52:30.015Z,88.80
2018-02-24T00:54:56.461Z,88.70
2018-02-24T00:57:23.664Z,89.00
2018-02-24T00:59:50.093Z,88.70
2018-02-24T01:02:16.598Z,88.70
2018-02-24T01:04:43.063Z,88.60
2018-02-24T01:07:09.499Z,88.50
2018-02-24T01:09:37.121Z,88.50
2018-02-24T01:12:03.575Z,88.50
2018-02-24T01:14:30.304Z,88.50
2018-02-24T01:16:56.769Z,88.40
2018-02-24T01:19:23.212Z,88.40
2018-02-24T01:21:49.642Z,89.20
2018-02-24T01:24:17.288Z,88.40
2018-02-24T01:26:43.711Z,88.40
2018-02-24T01:29:10.188Z,88.40
2018-02-24T01:31:36.628Z,87.70
2018-02-24T01:34:03.795Z,87.90
2018-02-24T01:36:30.263Z,87.80
2018-02-24T01:38:56.663Z,87.50
2018-02-24T01:41:24.022Z,87.60
2018-02-24T01:43:50.424Z,87.50
2018-02-24T01:46:17.729Z,87.20
2018-02-24T01:48:44.146Z,87.10
2018-02-24T01:51:10.588Z,87.50
2018-02-24T01:53:37.101Z,87.40
2018-02-24T01:56:03.493Z,87.50
2018-02-24T01:58:29.992Z,87.20
2018-02-24T02:00:56.887Z,88.10
2018-02-24T02:03:23.287Z,87.50
2018-02-24T02:05:50.463Z,87.50
2018-02-24T02:08:16.905Z,87.50
2018-02-24T02:10:43.351Z,87.40
2018-02-24T02:13:10.511Z,87.50
2018-02-24T02:15:37.051Z,87.40
2018-02-24T02:18:03.464Z,87.50
2018-02-24T02:20:29.907Z,87.10
2018-02-24T02:22:57.139Z,86.90
2018-02-24T02:25:23.570Z,86.90
2018-02-24T02:27:50.032Z,87.00
2018-02-24T02:30:16.480Z,86.90
2018-02-24T02:32:42.937Z,86.80
2018-02-24T02:35:09.627Z,86.80
2018-02-24T02:37:35.997Z,86.60
2018-02-24T02:40:02.497Z,87.40
2018-02-24T02:42:28.984Z,87.10
2018-02-24T02:44:55.405Z,86.80
2018-02-24T02:47:21.860Z,86.80
2018-02-24T02:49:48.291Z,86.70
2018-02-24T02:52:14.753Z,86.70
2018-02-24T02:54:41.229Z,87.10
2018-02-24T02:57:07.611Z,87.10
2018-02-24T02:59:34.033Z,86.80
2018-02-24T03:02:00.517Z,87.10
2018-02-24T03:04:27.683Z,87.10
2018-02-24T03:06:54.098Z,87.10
2018-02-24T03:09:20.889Z,87.30
2018-02-24T03:11:48.065Z,87.30
2018-02-24T03:14:14.503Z,87.30
2018-02-24T03:16:41.304Z,87.70
2018-02-24T03:19:07.709Z,87.90
2018-02-24T03:21:34.146Z,87.30
2018-02-24T03:24:00.608Z,87.40
2018-02-24T03:26:27.059Z,87.80
2018-02-24T03:28:54.201Z,87.90
2018-02-24T03:31:20.698Z,87.80
2018-02-24T03:33:47.103Z,88.60
2018-02-24T03:36:13.523Z,88.00
2018-02-24T03:38:40.065Z,87.80
2018-02-24T03:41:07.320Z,86.70
2018-02-24T03:43:33.755Z,86.70
2018-02-24T03:46:00.243Z,87.00
2018-02-24T03:48:26.631Z,87.30
2018-02-24T03:50:53.803Z,87.30
2018-02-24T03:53:20.249Z,87.20
2018-02-24T03:55:46.683Z,87.20
2018-02-24T03:58:13.132Z,86.80
2018-02-24T04:00:39.552Z,86.70
2018-02-24T04:03:05.957Z,86.80
2018-02-24T04:05:33.244Z,86.50
2018-02-24T04:08:00.019Z,86.40
2018-02-24T04:10:26.528Z,86.40
2018-02-24T04:12:53.025Z,86.40
2018-02-24T04:15:20.226Z,87.00
2018-02-24T04:17:46.657Z,86.90
2018-02-24T04:20:13.099Z,86.80
2018-02-24T04:22:39.570Z,86.80
2018-02-24T04:25:05.989Z,86.70
2018-02-24T04:27:32.474Z,86.60
2018-02-24T04:29:58.933Z,86.70
2018-02-24T04:32:25.397Z,86.90
2018-02-24T04:34:51.843Z,86.70
2018-02-24T04:37:18.322Z,86.90
2018-02-24T04:39:44.825Z,86.70
2018-02-24T04:42:12.068Z,86.20
2018-02-24T04:44:39.224Z,87.00
2018-02-24T04:47:06.361Z,86.30
2018-02-24T04:49:33.549Z,86.20
2018-02-24T04:52:00.040Z,86.10
2018-02-24T04:54:27.252Z,86.00
2018-02-24T04:56:53.652Z,85.90
2018-02-24T04:59:20.142Z,86.20
2018-02-24T05:01:46.576Z,85.50
2018-02-24T05:04:12.997Z,85.50
2018-02-24T05:06:39.416Z,85.00
2018-02-24T05:09:05.854Z,85.00
2018-02-24T05:11:32.204Z,84.90
2018-02-24T05:13:59.427Z,84.90
2018-02-24T05:16:25.881Z,84.90
2018-02-24T05:18:52.323Z,84.90
2018-02-24T05:21:18.744Z,85.00
2018-02-24T05:23:45.387Z,85.40
2018-02-24T05:26:12.589Z,84.90
2018-02-24T05:28:39.759Z,84.90
2018-02-24T05:31:06.245Z,84.90
2018-02-24T05:33:32.693Z,84.20
2018-02-24T05:35:59.158Z,84.90
2018-02-24T05:38:25.948Z,84.40
2018-02-24T05:40:53.152Z,84.20
2018-02-24T05:43:19.575Z,84.10
2018-02-24T05:45:46.766Z,84.60
2018-02-24T05:48:13.194Z,84.50
2018-02-24T05:50:39.647Z,83.80
2018-02-24T05:53:06.861Z,83.60
2018-02-24T05:55:33.327Z,83.60
2018-02-24T05:58:00.668Z,83.30
2018-02-24T06:00:27.111Z,83.20
2018-02-24T06:02:53.537Z,83.80
2018-02-24T06:05:19.977Z,83.60
2018-02-24T06:07:46.422Z,83.00
2018-02-24T06:10:12.869Z,83.10
2018-02-24T06:12:39.259Z,82.90
2018-02-24T06:15:06.050Z,83.10
2018-02-24T06:17:32.489Z,82.80
2018-02-24T06:19:58.908Z,82.80
2018-02-24T06:22:25.409Z,83.40
2018-02-24T06:24:51.851Z,83.30
2018-02-24T06:27:18.383Z,83.10
2018-02-24T06:29:45.031Z,83.20
2018-02-24T06:32:11.498Z,83.00
2018-02-24T06:34:38.064Z,83.80
2018-02-24T06:37:04.995Z,83.50
2018-02-24T06:39:31.475Z,83.20
2018-02-24T06:41:57.876Z,83.40
2018-02-24T06:44:24.361Z,83.20
2018-02-24T06:46:50.755Z,83.10
2018-02-24T06:49:17.145Z,82.70
2018-02-24T06:51:43.574Z,82.60
2018-02-24T06:54:10.044Z,82.20
2018-02-24T06:56:36.480Z,82.40
2018-02-24T06:59:02.899Z,82.00
2018-02-24T07:01:30.047Z,81.30
2018-02-24T07:03:57.251Z,81.10
2018-02-24T07:06:23.723Z,81.10
2018-02-24T07:08:50.878Z,80.70
2018-02-24T07:11:17.318Z,80.70
2018-02-24T07:13:43.731Z,81.00
2018-02-24T07:16:10.129Z,81.00
2018-02-24T07:18:36.671Z,81.30
2018-02-24T07:21:03.137Z,81.00
2018-02-24T07:23:29.572Z,81.10
2018-02-24T07:25:55.972Z,81.00
2018-02-24T07:28:22.432Z,81.00
2018-02-24T07:30:48.849Z,80.90
2018-02-24T07:33:15.325Z,81.10
2018-02-24T07:35:42.096Z,80.30
2018-02-24T07:38:08.440Z,80.20
2018-02-24T07:40:34.898Z,80.10
2018-02-24T07:43:01.635Z,79.90
2018-02-24T07:45:28.187Z,79.50
2018-02-24T07:47:55.321Z,78.90
2018-02-24T07:50:21.765Z,78.80
2018-02-24T07:52:48.220Z,78.00
2018-02-24T07:55:14.724Z,78.20
2018-02-24T07:57:41.342Z,77.70
2018-02-24T08:00:07.757Z,77.80
2018-02-24T08:02:34.303Z,76.80
2018-02-24T08:05:00.834Z,76.80
2018-02-24T08:07:27.262Z,76.50
2018-02-24T08:09:53.718Z,76.20
2018-02-24T08:12:20.193Z,76.60
2018-02-24T08:14:46.630Z,75.20
2018-02-24T08:17:13.060Z,75.50
2018-02-24T08:19:39.962Z,75.10
2018-02-24T08:22:06.356Z,73.60
2018-02-24T08:24:32.748Z,74.50
2018-02-24T08:26:59.205Z,75.10
2018-02-24T08:29:25.641Z,74.70
2018-02-24T08:31:52.115Z,73.60
2018-02-24T08:34:18.588Z,74.70
2018-02-24T08:36:45.141Z,74.80
2018-02-24T08:39:11.557Z,73.00
2018-02-24T08:41:38.841Z,73.80
2018-02-24T08:44:05.257Z,73.60
2018-02-24T08:46:31.686Z,73.60
2018-02-24T08:48:58.893Z,73.30
2018-02-24T08:51:26.135Z,72.60
2018-02-24T08:53:59.792Z,72.50
2018-02-24T08:56:26.362Z,71.20
2018-02-24T08:58:53.516Z,71.20
2018-02-24T09:01:20.303Z,71.20
2018-02-24T09:03:46.739Z,71.10
2018-02-24T09:06:13.906Z,70.90
2018-02-24T09:08:41.090Z,70.80
2018-02-24T09:11:07.535Z,70.80
2018-02-24T09:13:34.017Z,70.80
2018-02-24T09:16:01.423Z,71.40
2018-02-24T09:18:27.948Z,71.30
2018-02-24T09:20:54.403Z,71.10
2018-02-24T09:23:20.988Z,71.30
2018-02-24T09:25:47.382Z,71.30
2018-02-24T09:28:13.807Z,71.20
2018-02-24T09:30:40.469Z,71.10
2018-02-24T09:33:06.879Z,70.60
2018-02-24T09:35:33.399Z,70.70
2018-02-24T09:37:59.865Z,71.00
2018-02-24T09:40:26.265Z,71.20
2018-02-24T09:42:53.456Z,71.00
2018-02-24T09:45:20.381Z,70.90
2018-02-24T09:47:46.838Z,71.80
2018-02-24T09:50:13.754Z,71.00
2018-02-24T09:52:40.568Z,71.80
2018-02-24T09:55:07.046Z,71.20
2018-02-24T09:57:33.511Z,72.50
2018-02-24T10:00:00.220Z,71.60
2018-02-24T10:02:26.638Z,71.80
2018-02-24T10:04:53.796Z,70.70
2018-02-24T10:07:21.073Z,71.20
2018-02-24T10:09:47.541Z,71.10
2018-02-24T10:12:13.917Z,71.80
2018-02-24T10:14:40.445Z,72.50
2018-02-24T10:17:06.878Z,73.00
2018-02-24T10:19:33.385Z,72.30
2018-02-24T10:21:59.893Z,71.60
2018-02-24T10:24:26.345Z,71.80
2018-02-24T10:26:52.872Z,71.40
2018-02-24T10:29:19.712Z,72.50
2018-02-24T10:31:46.231Z,72.50
2018-02-24T10:34:12.663Z,72.00
2018-02-24T10:36:39.272Z,72.40
2018-02-24T10:39:05.738Z,73.90
2018-02-24T10:41:32.173Z,73.00
2018-02-24T10:43:58.725Z,73.80
2018-02-24T10:46:25.193Z,72.80
2018-02-24T10:49:04.623Z,73.70
2018-02-24T10:51:31.776Z,73.20
2018-02-24T10:53:58.994Z,73.60
2018-02-24T10:56:25.483Z,74.30
2018-02-24T10:58:51.905Z,73.80
2018-02-24T11:01:18.430Z,73.60
2018-02-24T11:03:45.029Z,73.00
2018-02-24T11:06:11.453Z,75.10
2018-02-24T11:08:38.521Z,74.00
2018-02-24T11:11:05.005Z,73.10
2018-02-24T11:13:31.537Z,74.00
2018-02-24T11:15:57.932Z,74.70
2018-02-24T11:18:24.555Z,74.30
2018-02-24T11:20:51.749Z,74.40
2018-02-24T11:23:18.196Z,75.10
2018-02-24T11:25:44.721Z,73.80
2018-02-24T11:28:11.166Z,75.00
2018-02-24T11:30:37.685Z,75.40
2018-02-24T11:33:04.127Z,75.70
2018-02-24T11:35:30.762Z,74.30
2018-02-24T11:37:57.996Z,73.50
2018-02-24T11:40:24.508Z,73.40
2018-02-24T11:42:51.723Z,74.00
2018-02-24T11:45:18.764Z,74.00
2018-02-24T11:47:45.390Z,74.20
2018-02-24T11:50:11.934Z,75.10
2018-02-24T11:52:38.440Z,74.20
2018-02-24T11:55:04.925Z,73.10
2018-02-24T11:57:31.807Z,74.20
2018-02-24T11:59:58.297Z,71.60
2018-02-24T12:02:24.881Z,71.20
2018-02-24T12:04:51.397Z,72.70
2018-02-24T12:07:17.828Z,73.50
2018-02-24T12:09:44.452Z,75.20
2018-02-24T12:12:11.825Z,73.20
2018-02-24T12:14:38.319Z,73.20
2018-02-24T12:17:05.600Z,74.70
2018-02-24T12:19:32.180Z,74.60
2018-02-24T12:21:58.640Z,73.00
2018-02-24T12:24:25.379Z,72.30
2018-02-24T12:26:52.341Z,72.30
2018-02-24T12:29:18.825Z,73.20
2018-02-24T12:31:45.424Z,72.40
2018-02-24T12:34:11.907Z,72.30
2018-02-24T12:36:38.294Z,72.80
2018-02-24T12:39:04.771Z,73.30
2018-02-24T12:41:31.264Z,73.90
2018-02-24T12:43:57.728Z,71.90
2018-02-24T12:46:24.210Z,70.40
2018-02-24T12:48:50.949Z,70.20
2018-02-24T12:51:17.441Z,70.50
2018-02-24T12:53:43.932Z,71.00
2018-02-24T12:56:10.488Z,69.90
2018-02-24T12:58:36.975Z,70.20
2018-02-24T13:01:03.434Z,70.00
2018-02-24T13:03:30.317Z,70.10
2018-02-24T13:05:56.755Z,70.10
2018-02-24T13:08:23.145Z,70.80
2018-02-24T13:10:49.584Z,71.30
2018-02-24T13:13:16.023Z,70.30
2018-02-24T13:15:42.428Z,70.20
2018-02-24T13:18:09.184Z,71.40
2018-02-24T13:20:35.550Z,71.40
2018-02-24T13:23:02.008Z,71.00
2018-02-24T13:25:28.968Z,71.10
2018-02-24T13:27:55.863Z,71.80
2018-02-24T13:30:22.330Z,71.50
2018-02-24T13:32:48.861Z,71.90
2018-02-24T13:35:15.286Z,70.70
2018-02-24T13:37:41.773Z,69.40
2018-02-24T13:40:08.222Z,69.30
2018-02-24T13:42:34.723Z,69.90
2018-02-24T13:45:01.921Z,69.80
2018-02-24T13:47:28.472Z,69.80
2018-02-24T13:49:54.941Z,70.70
2018-02-24T13:52:22.185Z,72.40
2018-02-24T13:54:48.894Z,72.40
2018-02-24T13:57:15.493Z,72.50
2018-02-24T13:59:42.788Z,73.10
2018-02-24T14:02:09.233Z,73.00
2018-02-24T14:04:35.717Z,74.10
2018-02-24T14:07:02.144Z,74.30
2018-02-24T14:09:29.500Z,74.70
2018-02-24T14:11:56.664Z,74.80
2018-02-24T14:14:23.132Z,74.80
2018-02-24T14:16:49.801Z,75.10
2018-02-24T14:19:16.511Z,75.70
2018-02-24T14:21:43.073Z,75.50
2018-02-24T14:24:09.698Z,75.70
2018-02-24T14:26:36.159Z,75.50
2018-02-24T14:29:02.627Z,76.10
2018-02-24T14:31:29.034Z,74.80
2018-02-24T14:33:56.529Z,74.20
2018-02-24T14:36:22.976Z,74.10
2018-02-24T14:38:49.421Z,74.50
2018-02-24T14:41:15.854Z,74.70
2018-02-24T14:43:42.296Z,75.20
2018-02-24T14:46:08.707Z,74.80
2018-02-24T14:48:35.466Z,75.60
2018-02-24T14:51:02.651Z,75.80
2018-02-24T14:53:29.203Z,75.70
2018-02-24T14:55:55.659Z,76.20
2018-02-24T14:58:22.068Z,76.20
2018-02-24T15:00:48.532Z,76.30
2018-02-24T15:03:14.984Z,76.80
2018-02-24T15:05:41.485Z,76.70
2018-02-24T15:08:07.877Z,75.50
2018-02-24T15:10:35.068Z,75.00
2018-02-24T15:13:01.568Z,75.00
2018-02-24T15:15:27.996Z,74.60
2018-02-24T15:17:54.525Z,75.60
2018-02-24T15:20:21.028Z,76.00
2018-02-24T15:22:47.617Z,75.10
2018-02-24T15:25:14.194Z,76.30
2018-02-24T15:27:40.661Z,76.00
2018-02-24T15:30:07.170Z,75.60
2018-02-24T15:32:33.936Z,75.90
2018-02-24T15:35:00.361Z,75.80
2018-02-24T15:37:26.791Z,75.40
2018-02-24T15:39:53.970Z,75.10
2018-02-24T15:42:20.594Z,75.00
2018-02-24T15:44:47.007Z,75.00
2018-02-24T15:47:14.194Z,76.40
2018-02-24T15:49:42.287Z,76.30
2018-02-24T15:52:08.909Z,76.90
2018-02-24T15:54:36.241Z,78.60
2018-02-24T15:57:03.411Z,79.20
2018-02-24T15:59:29.898Z,79.20
2018-02-24T16:01:56.681Z,80.00
2018-02-24T16:04:23.050Z,80.50
2018-02-24T16:06:50.671Z,84.70
2018-02-24T16:09:17.656Z,84.70
2018-02-24T16:11:44.218Z,85.80
2018-02-24T16:14:11.166Z,85.90
2018-02-24T16:16:37.950Z,84.10
2018-02-24T16:19:06.304Z,83.10
2018-02-24T16:21:34.516Z,83.90
2018-02-24T16:24:03.109Z,84.10
2018-02-24T16:26:32.295Z,83.90
2018-02-24T16:28:59.200Z,83.10
2018-02-24T16:31:25.637Z,83.00
2018-02-24T16:33:52.219Z,83.00
2018-02-24T16:36:19.236Z,83.20
2018-02-24T16:38:46.487Z,83.30
2018-02-24T16:41:12.958Z,83.20
2018-02-24T16:43:39.607Z,82.90
2018-02-24T16:46:06.871Z,81.70
2018-02-24T16:48:33.564Z,81.70
2018-02-24T16:51:01.461Z,81.50
2018-02-24T16:53:28.682Z,81.70
2018-02-24T16:55:55.965Z,81.60
2018-02-24T16:58:22.545Z,81.60
2018-02-24T17:00:48.952Z,80.80
2018-02-24T17:03:15.401Z,80.30
2018-02-24T17:05:42.637Z,80.20
2018-02-24T17:08:09.339Z,80.20
2018-02-24T17:10:35.747Z,79.00
2018-02-24T17:13:02.282Z,78.70
2018-02-24T17:15:28.782Z,79.00
2018-02-24T17:17:55.186Z,78.40
2018-02-24T17:20:22.051Z,79.00
2018-02-24T17:22:48.513Z,79.20
2018-02-24T17:25:15.067Z,79.80
2018-02-24T17:27:41.784Z,78.90
2018-02-24T17:30:08.251Z,79.00
2018-02-24T17:32:34.677Z,78.50
2018-02-24T17:35:01.528Z,78.60
2018-02-24T17:37:28.108Z,78.30
2018-02-24T17:39:54.491Z,78.80
2018-02-24T17:42:21.784Z,79.30
2018-02-24T17:44:48.239Z,78.50
2018-02-24T17:47:14.653Z,79.00
2018-02-24T17:49:41.120Z,79.10
2018-02-24T17:52:07.528Z,79.00
2018-02-24T17:54:34.633Z,79.20
2018-02-24T17:57:01.161Z,79.20
2018-02-24T17:59:27.607Z,80.50
2018-02-24T18:01:54.020Z,79.00
2018-02-24T18:04:20.781Z,78.90
2018-02-24T18:06:47.188Z,79.00
2018-02-24T18:09:14.371Z,80.00
2018-02-24T18:11:41.480Z,79.00
2018-02-24T18:14:07.888Z,79.70
2018-02-24T18:16:35.046Z,79.10
2018-02-24T18:19:01.734Z,79.00
2018-02-24T18:21:28.160Z,79.50
2018-02-24T18:23:54.571Z,79.20
2018-02-24T18:26:21.060Z,79.50
2018-02-24T18:28:48.266Z,79.10
2018-02-24T18:31:15.475Z,79.30
2018-02-24T18:33:41.978Z,79.20
2018-02-24T18:36:08.410Z,79.40
2018-02-24T18:38:34.790Z,79.20
2018-02-24T18:41:02.505Z,79.10
2018-02-24T18:43:30.507Z,79.30
2018-02-24T18:45:57.753Z,79.40
2018-02-24T18:48:25.925Z,79.50
2018-02-24T18:50:53.100Z,79.30
2018-02-24T18:53:19.582Z,79.20
2018-02-24T18:55:46.057Z,79.80
2018-02-24T18:58:13.274Z,79.50
2018-02-24T19:00:39.776Z,79.40
2018-02-24T19:03:06.481Z,79.40
2018-02-24T19:05:32.931Z,78.70
2018-02-24T19:07:59.633Z,79.40
2018-02-24T19:10:26.481Z,79.40
2018-02-24T19:12:53.639Z,78.90
2018-02-24T19:15:20.269Z,78.90
2018-02-24T19:17:46.917Z,79.40
2018-02-24T19:20:13.538Z,80.00
2018-02-24T19:22:40.087Z,78.90
2018-02-24T19:25:07.493Z,79.20
2018-02-24T19:27:34.028Z,79.10
2018-02-24T19:30:03.831Z,80.00
2018-02-24T19:32:30.450Z,80.10
2018-02-24T19:34:56.985Z,79.50
2018-02-24T19:37:24.116Z,79.60
2018-02-24T19:39:51.222Z,79.60
2018-02-24T19:42:17.665Z,79.20
2018-02-24T19:44:44.176Z,79.40
2018-02-24T19:47:11.540Z,80.50
2018-02-24T19:49:37.998Z,79.70
2018-02-24T19:52:04.414Z,79.70
2018-02-24T19:54:32.717Z,79.80
2018-02-24T19:56:59.237Z,80.00
2018-02-24T19:59:25.682Z,80.10
2018-02-24T20:01:52.609Z,80.00
2018-02-24T20:04:19.008Z,80.50
2018-02-24T20:06:46.144Z,80.60
2018-02-24T20:09:13.378Z,80.40
2018-02-24T20:11:39.801Z,80.20
2018-02-24T20:14:06.267Z,80.50
2018-02-24T20:16:33.254Z,80.40
2018-02-24T20:18:59.689Z,80.50
2018-02-24T20:21:26.197Z,80.30
2018-02-24T20:23:53.465Z,80.70
2018-02-24T20:26:20.891Z,80.80
2018-02-24T20:28:48.045Z,80.50
2018-02-24T20:31:15.684Z,79.90
2018-02-24T20:33:43.517Z,79.90
2018-02-24T20:36:10.917Z,80.30
2018-02-24T20:38:38.207Z,80.50
2018-02-24T20:41:04.640Z,79.80
2018-02-24T20:43:31.193Z,80.20
2018-02-24T20:45:58.039Z,80.10
2018-02-24T20:48:25.422Z,80.10
2018-02-24T20:50:51.796Z,80.00
2018-02-24T20:53:18.245Z,80.30
2018-02-24T20:55:44.840Z,80.20
2018-02-24T20:58:13.417Z,80.50
2018-02-24T21:00:39.977Z,80.90
2018-02-24T21:03:07.170Z,80.40
2018-02-24T21:05:33.609Z,80.40
2018-02-24T21:08:00.647Z,80.80
2018-02-24T21:10:27.049Z,81.00
2018-02-24T21:12:54.223Z,80.50
2018-02-24T21:15:21.162Z,80.60
2018-02-24T21:17:47.549Z,81.00
2018-02-24T21:20:13.954Z,81.10
2018-02-24T21:22:40.765Z,81.20
2018-02-24T21:25:07.208Z,81.20
2018-02-24T21:27:33.723Z,81.10
2018-02-24T21:30:00.877Z,81.50
2018-02-24T21:32:28.006Z,81.60
2018-02-24T21:34:54.433Z,81.50
2018-02-24T21:37:20.913Z,82.00
2018-02-24T21:39:47.357Z,82.00
2018-02-24T21:42:13.788Z,82.00
2018-02-24T21:44:40.251Z,82.10
2018-02-24T21:47:06.731Z,82.30
2018-02-24T21:49:33.964Z,82.80
2018-02-24T21:52:00.540Z,82.40
2018-02-24T21:54:27.494Z,82.10
2018-02-24T21:56:53.941Z,82.10
2018-02-24T21:59:20.392Z,82.00
2018-02-24T22:01:46.771Z,82.40
2018-02-24T22:04:13.488Z,82.20
2018-02-24T22:06:40.667Z,82.70
2018-02-24T22:09:07.115Z,82.70
2018-02-24T22:11:33.580Z,83.50
2018-02-24T22:14:00.044Z,83.10
2018-02-24T22:16:27.216Z,83.10
2018-02-24T22:18:53.637Z,83.00
2018-02-24T22:21:20.820Z,83.40
2018-02-24T22:23:47.194Z,83.40
2018-02-24T22:26:13.665Z,83.30
2018-02-24T22:28:40.083Z,83.40
2018-02-24T22:31:06.536Z,83.50
2018-02-24T22:33:32.975Z,83.50
2018-02-24T22:35:59.530Z,83.50
2018-02-24T22:38:25.949Z,83.50
2018-02-24T22:40:52.359Z,83.80
2018-02-24T22:43:19.848Z,84.20
2018-02-24T22:45:46.270Z,84.10
2018-02-24T22:48:18.772Z,84.50
2018-02-24T22:50:45.740Z,84.30
2018-02-24T22:53:12.122Z,84.20
2018-02-24T22:55:39.285Z,84.30
2018-02-24T22:58:05.756Z,84.20
2018-02-24T23:00:32.196Z,84.00
2018-02-24T23:02:58.594Z,84.30
2018-02-24T23:05:25.315Z,84.40
2018-02-24T23:07:51.710Z,84.70
2018-02-24T23:10:18.940Z,84.50
2018-02-24T23:12:45.660Z,84.40
2018-02-24T23:15:12.077Z,84.50
2018-02-24T23:17:38.485Z,84.40
2018-02-24T23:20:06.396Z,84.70
2018-02-24T23:22:32.812Z,84.70
2018-02-24T23:24:59.232Z,84.50
2018-02-24T23:27:25.678Z,84.00
2018-02-24T23:29:52.162Z,83.10
2018-02-24T23:32:18.634Z,83.20
2018-02-24T23:34:45.387Z,83.50
2018-02-24T23:37:11.793Z,83.40
2018-02-24T23:39:38.230Z,82.70
2018-02-24T23:42:04.721Z,82.90
2018-02-24T23:44:31.953Z,82.40
2018-02-24T23:46:58.372Z,82.40
2018-02-24T23:49:25.145Z,82.40
2018-02-24T23:51:51.546Z,82.20
2018-02-24T23:54:17.925Z,82.40
2018-02-24T23:56:44.805Z,82.30
2018-02-24T23:59:11.958Z,81.50
